Accueil
METAR-TAF:

METAR-TAF

Aéroports :

Huntington, Virginie-Occidentale, États-Unis

latitude: 38-21-54N, longitude: 082-33-18W, altitude: 252 m

Observation

Le bulletin a été fait il y a 52 minutes, à 22:51 UTC
Vent 4 kt de sud/sud-est
Température 34°C
Humidité 41%
Pression 1011 hPa
Visibilité: 16.1 km
Ciel clair

METAR: KHTS 092251Z 16004KT 10SM CLR 34/19 A2986 RMK AO2 SLP099 T03390194

Heure: 19:43 (23:43 UTC)

Prévision

Le bulletin a été fait il y a 6 heures et 16 minutes, à 17:27 UTC
Prévision valable du 09 à 18 UTC au 10 à 18 UTC
Vent kt de nord
Visibilité: 10 km
Nuages épars à une hauteur de 4000 ft
A partir de 10 à 0100 UTC
Vent kt de nord
Visibilité: 10 km
Quelques nuages à une hauteur de 18000 ft
A partir de 10 à 1600 UTC
Vent 6 kt de sud-ouest
Visibilité: 10 km
Nuages épars à une hauteur de 8000 ft

TAF: KHTS 091727Z 0918/1018 00000KT P6SM SCT040 FM100100 00000KT P6SM FEW180 FM101600 22006KT P6SM SCT080

Observations et prévisions météorologiques de plus de 4000 aéroports (messages METAR et TAF).

Les stations disponibles sont représentées par des disques jaunes et rouges sur la carte.

Passer la souris dessus pour voir le nom de la station.

Cliquer dessus pour voir les observations et prévisions météorologiques.

Pour changer de carte: cliquez sur les boutons verts avec une croix noire pour zoomer, sur le bouton vert avec un tiret pour effectuer un zoom arrière, ou sur les flèches vertes pour les cartes adjacentes.


METAR-TAF: